createdAt,value
2022-11-24T00:00:06.359Z,8.16
2022-11-24T00:02:09.210Z,8.21
2022-11-24T00:04:12.790Z,8.10
2022-11-24T00:06:16.732Z,8.12
2022-11-24T00:08:19.437Z,8.23
2022-11-24T00:10:22.179Z,8.26
2022-11-24T00:12:24.937Z,8.23
2022-11-24T00:14:27.734Z,8.14
2022-11-24T00:16:33.887Z,8.18
2022-11-24T00:18:36.984Z,8.19
2022-11-24T00:20:39.741Z,8.20
2022-11-24T00:22:42.433Z,8.19
2022-11-24T00:24:45.117Z,8.22
2022-11-24T00:26:47.930Z,8.27
2022-11-24T00:28:52.581Z,8.24
2022-11-24T00:30:55.343Z,8.22
2022-11-24T00:32:59.490Z,8.26
2022-11-24T00:35:02.297Z,8.26
2022-11-24T00:37:05.072Z,8.28
2022-11-24T00:39:09.586Z,8.30
2022-11-24T00:41:13.035Z,8.30
2022-11-24T00:43:15.759Z,8.31
2022-11-24T00:45:18.482Z,8.30
2022-11-24T00:47:21.236Z,8.28
2022-11-24T00:49:25.355Z,8.24
2022-11-24T00:51:30.157Z,8.20
2022-11-24T00:53:32.953Z,8.02
2022-11-24T00:55:35.842Z,7.99
2022-11-24T00:57:38.556Z,8.02
2022-11-24T00:59:41.252Z,8.04
2022-11-24T01:01:44.089Z,7.96
2022-11-24T01:03:47.669Z,7.95
2022-11-24T01:05:51.775Z,7.96
2022-11-24T01:07:54.528Z,7.98
2022-11-24T01:09:57.363Z,8.00
2022-11-24T01:12:03.894Z,8.03
2022-11-24T01:14:06.643Z,8.09
2022-11-24T01:16:15.740Z,8.18
2022-11-24T01:18:18.476Z,8.22
2022-11-24T01:20:21.165Z,8.29
2022-11-24T01:22:27.326Z,8.34
2022-11-24T01:24:30.057Z,8.39
2022-11-24T01:26:32.870Z,8.39
2022-11-24T01:28:37.700Z,8.40
2022-11-24T01:30:42.274Z,8.42
2022-11-24T01:32:45.050Z,8.44
2022-11-24T01:34:47.766Z,8.54
2022-11-24T01:36:50.543Z,8.60
2022-11-24T01:38:54.654Z,8.66
2022-11-24T01:41:05.028Z,8.65
2022-11-24T01:43:17.463Z,8.62
2022-11-24T01:45:35.768Z,8.66
2022-11-24T01:47:41.660Z,8.69
2022-11-24T01:49:48.319Z,8.73
2022-11-24T01:51:56.462Z,8.82
2022-11-24T01:54:03.757Z,8.84
2022-11-24T01:56:07.927Z,8.86
2022-11-24T01:58:14.412Z,8.83
2022-11-24T02:00:18.695Z,8.83
2022-11-24T02:02:22.455Z,8.85
2022-11-24T02:04:29.845Z,8.92
2022-11-24T02:06:36.698Z,8.90
2022-11-24T02:09:04.520Z,8.92
2022-11-24T02:11:08.027Z,8.94
2022-11-24T02:13:11.717Z,8.94
2022-11-24T02:15:16.317Z,9.04
2022-11-24T02:17:19.119Z,9.02
2022-11-24T02:19:31.532Z,9.02
2022-11-24T02:21:34.354Z,9.02
2022-11-24T02:23:46.161Z,9.05
2022-11-24T02:25:59.297Z,9.05
2022-11-24T02:28:07.617Z,9.02
2022-11-24T02:30:11.167Z,9.02
2022-11-24T02:32:14.051Z,9.09
2022-11-24T02:34:16.908Z,9.02
2022-11-24T02:36:19.710Z,8.94
2022-11-24T02:38:31.251Z,8.94
2022-11-24T02:40:34.341Z,8.89
2022-11-24T02:42:42.327Z,8.88
2022-11-24T02:44:49.981Z,8.87
2022-11-24T02:47:02.923Z,8.79
2022-11-24T02:49:05.736Z,8.76
2022-11-24T02:51:09.216Z,8.82
2022-11-24T02:53:11.949Z,8.86
2022-11-24T02:55:14.967Z,8.86
2022-11-24T02:57:17.823Z,8.89
2022-11-24T02:59:20.948Z,8.88
2022-11-24T03:01:25.132Z,8.77
2022-11-24T03:03:28.529Z,8.72
2022-11-24T03:05:31.310Z,8.76
2022-11-24T03:07:34.154Z,8.82
2022-11-24T03:09:37.008Z,8.79
2022-11-24T03:11:41.295Z,8.79
2022-11-24T03:13:44.134Z,8.88
2022-11-24T03:15:46.940Z,8.92
2022-11-24T03:17:51.497Z,8.79
2022-11-24T03:19:54.282Z,8.83
2022-11-24T03:21:57.043Z,8.85
2022-11-24T03:24:00.212Z,8.89
2022-11-24T03:26:09.910Z,8.95
2022-11-24T03:28:12.667Z,9.00
2022-11-24T03:30:16.402Z,8.92
2022-11-24T03:32:19.180Z,8.85
2022-11-24T03:34:23.363Z,8.79
2022-11-24T03:36:26.166Z,8.87
2022-11-24T03:38:29.165Z,8.89
2022-11-24T03:40:32.034Z,8.96
2022-11-24T03:42:34.822Z,9.04
2022-11-24T03:44:37.658Z,8.94
2022-11-24T03:46:40.452Z,8.95
2022-11-24T03:48:43.253Z,9.08
2022-11-24T03:50:54.393Z,9.07
2022-11-24T03:52:57.224Z,8.99
2022-11-24T03:55:00.032Z,8.99
2022-11-24T03:57:02.833Z,8.97
2022-11-24T03:59:05.650Z,8.95
2022-11-24T04:01:09.004Z,8.95
2022-11-24T04:03:11.873Z,9.03
2022-11-24T04:05:14.849Z,9.02
2022-11-24T04:07:19.461Z,9.04
2022-11-24T04:09:22.334Z,9.00
2022-11-24T04:11:43.002Z,9.01
2022-11-24T04:13:48.392Z,8.99
2022-11-24T04:15:51.713Z,9.03
2022-11-24T04:17:56.468Z,9.05
2022-11-24T04:19:59.763Z,8.99
2022-11-24T04:22:02.526Z,8.98
2022-11-24T04:24:07.096Z,8.98
2022-11-24T04:26:09.844Z,8.95
2022-11-24T04:28:12.632Z,9.05
2022-11-24T04:30:15.397Z,8.98
2022-11-24T04:32:18.188Z,8.93
2022-11-24T04:34:20.970Z,8.99
2022-11-24T04:36:23.818Z,9.01
2022-11-24T04:39:24.086Z,9.02
2022-11-24T04:40:50.819Z,9.00
2022-11-24T04:42:55.242Z,8.99
2022-11-24T04:44:58.060Z,8.91
2022-11-24T04:47:01.326Z,8.93
2022-11-24T04:49:04.170Z,9.04
2022-11-24T04:51:07.876Z,8.98
2022-11-24T04:53:12.056Z,9.05
2022-11-24T04:55:14.807Z,8.90
2022-11-24T04:57:20.942Z,9.07
2022-11-24T04:59:23.774Z,8.93
2022-11-24T05:01:26.591Z,8.88
2022-11-24T05:03:29.459Z,8.98
2022-11-24T05:05:32.531Z,8.99
2022-11-24T05:07:35.715Z,9.08
2022-11-24T05:09:59.787Z,9.07
2022-11-24T05:12:02.662Z,9.05
2022-11-24T05:14:06.810Z,8.96
2022-11-24T05:16:10.223Z,8.97
2022-11-24T05:18:16.252Z,8.98
2022-11-24T05:20:19.423Z,8.90
2022-11-24T05:22:22.345Z,8.89
2022-11-24T05:24:25.192Z,8.94
2022-11-24T05:26:28.712Z,8.94
2022-11-24T05:28:31.800Z,8.98
2022-11-24T05:30:37.534Z,9.12
2022-11-24T05:32:40.481Z,9.06
2022-11-24T05:34:43.245Z,9.07
2022-11-24T05:36:56.249Z,9.05
2022-11-24T05:38:59.108Z,8.95
2022-11-24T05:41:02.850Z,8.94
2022-11-24T05:43:05.724Z,8.94
2022-11-24T05:45:10.470Z,9.00
2022-11-24T05:47:14.729Z,9.06
2022-11-24T05:49:17.561Z,9.12
2022-11-24T05:51:20.344Z,9.17
2022-11-24T05:53:23.808Z,9.16
2022-11-24T05:55:26.705Z,9.19
2022-11-24T05:57:29.479Z,9.18
2022-11-24T05:59:32.373Z,9.17
2022-11-24T06:01:35.712Z,9.15
2022-11-24T06:03:39.995Z,9.17
2022-11-24T06:05:47.798Z,9.20
2022-11-24T06:07:50.953Z,9.25
2022-11-24T06:09:53.852Z,9.22
2022-11-24T06:11:56.756Z,9.19
2022-11-24T06:13:59.612Z,9.24
2022-11-24T06:16:02.744Z,9.16
2022-11-24T06:18:05.652Z,9.19
2022-11-24T06:20:11.691Z,9.09
2022-11-24T06:22:14.492Z,9.09
2022-11-24T06:24:17.284Z,8.97
2022-11-24T06:26:20.177Z,8.93
2022-11-24T06:28:23.025Z,8.91
2022-11-24T06:30:25.908Z,8.99
2022-11-24T06:32:28.716Z,9.04
2022-11-24T06:34:31.705Z,8.93
2022-11-24T06:36:36.024Z,8.89
2022-11-24T06:38:38.996Z,8.74
2022-11-24T06:40:41.806Z,8.83
2022-11-24T06:42:51.410Z,8.87
2022-11-24T06:44:54.224Z,8.95
2022-11-24T06:46:57.170Z,8.84
2022-11-24T06:49:00.601Z,8.78
2022-11-24T06:51:04.812Z,8.76
2022-11-24T06:53:09.003Z,8.86
2022-11-24T06:55:11.843Z,8.89
2022-11-24T06:57:14.714Z,8.82
2022-11-24T06:59:19.506Z,8.82
2022-11-24T07:01:24.114Z,8.70
2022-11-24T07:03:27.107Z,8.53
2022-11-24T07:05:29.899Z,8.52
2022-11-24T07:07:32.783Z,8.55
2022-11-24T07:09:37.131Z,8.70
2022-11-24T07:11:40.994Z,8.71
2022-11-24T07:13:44.112Z,8.77
2022-11-24T07:15:46.961Z,8.80
2022-11-24T07:17:49.726Z,8.78
2022-11-24T07:19:52.668Z,8.80
2022-11-24T07:21:55.474Z,8.87
2022-11-24T07:23:59.193Z,8.87
2022-11-24T07:26:06.874Z,8.90
2022-11-24T07:28:10.074Z,8.94
2022-11-24T07:30:13.513Z,8.98
2022-11-24T07:32:16.480Z,8.86
2022-11-24T07:34:19.290Z,8.86
2022-11-24T07:36:22.964Z,8.88
2022-11-24T07:38:25.723Z,8.90
2022-11-24T07:40:28.558Z,8.94
2022-11-24T07:42:32.692Z,9.07
2022-11-24T07:44:35.709Z,9.00
2022-11-24T07:46:38.698Z,8.88
2022-11-24T07:48:41.471Z,8.96
2022-11-24T07:50:44.332Z,8.94
2022-11-24T07:52:47.182Z,8.86
2022-11-24T07:54:49.994Z,8.79
2022-11-24T07:56:53.028Z,8.73
2022-11-24T07:58:57.304Z,8.70
2022-11-24T08:01:00.388Z,8.70
2022-11-24T08:03:03.153Z,8.60
2022-11-24T08:05:06.563Z,8.76
2022-11-24T08:07:09.361Z,8.64
2022-11-24T08:09:12.146Z,8.64
2022-11-24T08:11:16.974Z,8.66
2022-11-24T08:13:19.876Z,8.60
2022-11-24T08:15:24.060Z,8.64
2022-11-24T08:17:26.892Z,8.62
2022-11-24T08:19:29.701Z,8.68
2022-11-24T08:21:32.531Z,8.66
2022-11-24T08:23:35.882Z,8.69
2022-11-24T08:25:38.970Z,8.73
2022-11-24T08:27:41.748Z,8.71
2022-11-24T08:29:44.845Z,8.70
2022-11-24T08:31:49.056Z,8.74
2022-11-24T08:33:51.861Z,8.78
2022-11-24T08:35:54.698Z,8.85
2022-11-24T08:38:03.219Z,8.91
2022-11-24T08:40:08.792Z,8.88
2022-11-24T08:42:11.629Z,8.88
2022-11-24T08:44:15.860Z,8.92
2022-11-24T08:46:19.936Z,8.96
2022-11-24T08:48:24.379Z,8.91
2022-11-24T08:50:27.391Z,8.89
2022-11-24T08:52:30.162Z,8.99
2022-11-24T08:54:33.280Z,9.06
2022-11-24T08:56:36.763Z,9.14
2022-11-24T08:58:40.855Z,9.11
2022-11-24T09:00:43.846Z,9.13
2022-11-24T09:02:46.710Z,9.09
2022-11-24T09:04:51.430Z,9.23
2022-11-24T09:06:54.155Z,9.13
2022-11-24T09:08:57.391Z,9.20
2022-11-24T09:11:01.326Z,9.25
2022-11-24T09:13:04.191Z,9.36
2022-11-24T09:15:08.050Z,9.40
2022-11-24T09:17:10.945Z,9.50
2022-11-24T09:19:13.869Z,9.52
2022-11-24T09:21:20.287Z,9.55
2022-11-24T09:23:23.086Z,9.61
2022-11-24T09:25:26.007Z,9.60
2022-11-24T09:27:29.006Z,9.58
2022-11-24T09:29:32.107Z,9.68
2022-11-24T09:31:37.552Z,9.74
2022-11-24T09:33:40.972Z,9.78
2022-11-24T09:35:43.805Z,9.73
2022-11-24T09:37:48.324Z,9.70
2022-11-24T09:39:51.329Z,9.66
2022-11-24T09:42:09.321Z,9.77
2022-11-24T09:44:40.512Z,9.81
2022-11-24T09:46:55.720Z,9.81
2022-11-24T09:48:59.710Z,9.79
2022-11-24T09:51:04.664Z,9.84
2022-11-24T09:53:17.632Z,9.70
2022-11-24T09:55:32.911Z,9.76
2022-11-24T09:57:39.648Z,9.70
2022-11-24T09:59:43.558Z,9.60
2022-11-24T10:01:48.484Z,9.60
2022-11-24T10:03:52.974Z,9.57
2022-11-24T10:05:56.452Z,9.58
2022-11-24T10:08:11.281Z,9.64
2022-11-24T10:10:24.472Z,9.60
2022-11-24T10:12:50.837Z,9.62
2022-11-24T10:15:02.275Z,9.60
2022-11-24T10:17:18.218Z,9.73
2022-11-24T10:19:37.556Z,9.73
2022-11-24T10:21:59.360Z,9.77
2022-11-24T10:24:27.689Z,9.90
2022-11-24T10:26:37.037Z,10.09
2022-11-24T10:28:44.757Z,10.24
2022-11-24T10:30:47.744Z,10.29
2022-11-24T10:32:53.965Z,10.16
2022-11-24T10:35:01.643Z,10.19
2022-11-24T10:37:14.092Z,10.17
2022-11-24T10:39:22.603Z,10.19
2022-11-24T10:41:38.609Z,10.30
2022-11-24T10:43:43.760Z,10.42
2022-11-24T10:45:46.767Z,10.42
2022-11-24T10:47:50.712Z,10.39
2022-11-24T10:49:58.590Z,10.40
2022-11-24T10:52:07.752Z,10.43
2022-11-24T10:54:17.425Z,10.38
2022-11-24T10:56:20.258Z,10.34
2022-11-24T10:58:26.649Z,10.38
2022-11-24T11:00:35.792Z,10.44
2022-11-24T11:02:40.171Z,10.40
2022-11-24T11:04:43.078Z,10.30
2022-11-24T11:06:45.902Z,10.27
2022-11-24T11:08:48.789Z,10.28
2022-11-24T11:11:08.339Z,10.34
2022-11-24T11:13:26.059Z,10.37
2022-11-24T11:15:31.943Z,10.39
2022-11-24T11:17:38.963Z,10.41
2022-11-24T11:19:54.342Z,10.37
2022-11-24T11:22:05.452Z,10.43
2022-11-24T11:24:17.354Z,10.52
2022-11-24T11:26:31.996Z,10.51
2022-11-24T11:28:34.763Z,10.46
2022-11-24T11:35:27.287Z,10.81
2022-11-24T11:37:33.655Z,10.91
2022-11-24T11:39:41.382Z,11.01
2022-11-24T11:41:52.896Z,11.00
2022-11-24T11:44:06.012Z,11.14
2022-11-24T11:46:13.474Z,11.20
2022-11-24T11:48:33.651Z,11.29
2022-11-24T11:51:15.073Z,11.35
2022-11-24T11:53:20.844Z,11.38
2022-11-24T11:55:38.110Z,11.26
2022-11-24T11:57:50.364Z,11.25
2022-11-24T12:00:15.342Z,11.25
2022-11-24T12:02:48.470Z,11.17
2022-11-24T12:04:57.792Z,11.22
2022-11-24T12:07:22.275Z,11.18
2022-11-24T12:09:41.466Z,11.17
2022-11-24T12:11:50.536Z,11.23
2022-11-24T12:14:04.595Z,11.28
2022-11-24T12:16:18.127Z,11.45
2022-11-24T12:21:07.875Z,11.44
2022-11-24T12:23:21.136Z,11.46
2022-11-24T12:25:29.224Z,11.37
2022-11-24T12:27:42.830Z,11.41
2022-11-24T12:30:03.586Z,11.37
2022-11-24T12:32:16.132Z,11.40
2022-11-24T12:34:30.311Z,11.44
2022-11-24T12:36:50.407Z,11.43
2022-11-24T12:39:01.088Z,11.34
2022-11-24T12:43:51.360Z,11.35
2022-11-24T12:46:00.204Z,11.26
2022-11-24T12:48:25.088Z,11.17
2022-11-24T12:50:30.302Z,11.04
2022-11-24T12:52:38.528Z,11.03
2022-11-24T12:54:42.910Z,11.06
2022-11-24T12:56:51.842Z,11.15
2022-11-24T12:59:03.829Z,11.21
2022-11-24T13:01:16.934Z,11.36
2022-11-24T13:03:32.260Z,11.42
2022-11-24T13:05:39.973Z,11.40
2022-11-24T13:07:47.516Z,11.34
2022-11-24T13:10:40.505Z,11.32
2022-11-24T13:12:57.789Z,11.17
2022-11-24T13:15:00.661Z,11.18
2022-11-24T13:17:28.824Z,11.08
2022-11-24T13:19:32.648Z,11.12
2022-11-24T13:22:02.330Z,11.09
2022-11-24T13:24:22.055Z,10.97
2022-11-24T13:26:30.999Z,10.98
2022-11-24T13:29:08.855Z,10.98
2022-11-24T13:31:23.676Z,10.90
2022-11-24T13:33:34.895Z,10.93
2022-11-24T13:35:38.365Z,10.89
2022-11-24T13:37:51.581Z,10.95
2022-11-24T13:39:57.641Z,11.12
2022-11-24T13:42:01.481Z,11.12
2022-11-24T13:44:25.389Z,11.17
2022-11-24T13:47:03.318Z,11.23
2022-11-24T13:49:15.030Z,11.38
2022-11-24T13:51:24.474Z,11.48
2022-11-24T13:53:32.955Z,11.50
2022-11-24T13:55:40.101Z,11.49
2022-11-24T13:57:45.291Z,11.66
2022-11-24T13:59:48.637Z,11.53
2022-11-24T14:01:57.832Z,11.55
2022-11-24T14:04:33.994Z,11.56
2022-11-24T14:06:39.003Z,11.50
2022-11-24T14:08:41.822Z,11.47
2022-11-24T14:10:46.948Z,11.43
2022-11-24T14:13:29.129Z,11.42
2022-11-24T14:15:35.339Z,11.40
2022-11-24T14:17:38.821Z,11.36
2022-11-24T14:19:41.702Z,11.34
2022-11-24T14:21:45.171Z,11.37
2022-11-24T14:23:51.037Z,11.39
2022-11-24T14:25:55.446Z,11.29
2022-11-24T14:27:58.566Z,11.20
2022-11-24T14:30:03.795Z,11.13
2022-11-24T14:32:17.175Z,11.09
2022-11-24T14:34:22.545Z,11.09
2022-11-24T14:36:25.405Z,11.09
2022-11-24T14:38:28.289Z,10.99
2022-11-24T14:40:42.320Z,11.06
2022-11-24T14:42:50.599Z,10.94
2022-11-24T14:44:56.622Z,10.97
2022-11-24T14:47:04.278Z,11.03
2022-11-24T14:49:07.975Z,10.99
2022-11-24T14:51:17.063Z,10.98
2022-11-24T14:53:26.382Z,11.02
2022-11-24T14:55:31.468Z,11.01
2022-11-24T14:57:36.554Z,11.01
2022-11-24T14:59:40.708Z,11.02
2022-11-24T15:01:43.548Z,11.04
2022-11-24T15:03:46.495Z,10.98
2022-11-24T15:05:55.740Z,11.07
2022-11-24T15:08:03.532Z,11.05
2022-11-24T15:10:18.026Z,11.06
2022-11-24T15:12:29.008Z,11.03
2022-11-24T15:14:45.868Z,10.92
2022-11-24T15:16:48.832Z,10.86
2022-11-24T15:18:58.454Z,10.85
2022-11-24T15:21:01.397Z,10.83
2022-11-24T15:23:21.918Z,10.87
2022-11-24T15:25:31.180Z,10.82
2022-11-24T15:27:33.945Z,10.83
2022-11-24T15:29:36.752Z,10.85
2022-11-24T15:31:45.310Z,10.85
2022-11-24T15:33:52.172Z,10.76
2022-11-24T15:35:55.031Z,10.71
2022-11-24T15:37:57.839Z,10.71
2022-11-24T15:40:00.677Z,10.64
2022-11-24T15:42:03.524Z,10.61
2022-11-24T15:44:06.357Z,10.56
2022-11-24T15:46:10.320Z,10.53
2022-11-24T15:48:17.907Z,10.48
2022-11-24T15:50:22.654Z,10.41
2022-11-24T15:52:25.585Z,10.36
2022-11-24T15:54:29.564Z,10.32
2022-11-24T15:56:34.654Z,10.30
2022-11-24T15:58:37.494Z,10.26
2022-11-24T16:00:41.158Z,10.21
2022-11-24T16:02:43.989Z,10.14
2022-11-24T16:04:48.233Z,10.08
2022-11-24T16:06:51.067Z,10.03
2022-11-24T16:08:54.252Z,9.99
2022-11-24T16:10:57.078Z,9.96
2022-11-24T16:12:59.906Z,9.90
2022-11-24T16:15:02.745Z,9.85
2022-11-24T16:17:05.681Z,9.80
2022-11-24T16:19:09.946Z,9.76
2022-11-24T16:21:14.066Z,9.72
2022-11-24T16:23:16.908Z,9.68
2022-11-24T16:25:19.747Z,9.67
2022-11-24T16:27:22.526Z,9.63
2022-11-24T16:29:25.344Z,9.55
2022-11-24T16:31:28.230Z,9.54
2022-11-24T16:33:31.418Z,9.51
2022-11-24T16:35:34.659Z,9.48
2022-11-24T16:37:38.887Z,9.44
2022-11-24T16:39:46.958Z,9.49
2022-11-24T16:41:52.741Z,9.46
2022-11-24T16:43:55.591Z,9.40
2022-11-24T16:46:16.724Z,9.38
2022-11-24T16:48:19.577Z,9.31
2022-11-24T16:50:22.430Z,9.28
2022-11-24T16:52:25.301Z,9.28
2022-11-24T16:54:29.455Z,9.25
2022-11-24T16:56:32.948Z,9.25
2022-11-24T16:58:38.727Z,9.27
2022-11-24T17:00:42.009Z,9.23
2022-11-24T17:02:44.888Z,9.18
2022-11-24T17:04:49.660Z,9.16
2022-11-24T17:06:52.679Z,9.11
2022-11-24T17:08:56.336Z,9.05
2022-11-24T17:11:06.166Z,9.05
2022-11-24T17:13:10.341Z,9.04
2022-11-24T17:17:37.531Z,8.95
2022-11-24T17:19:40.385Z,8.89
2022-11-24T17:21:43.161Z,8.88
2022-11-24T17:23:46.207Z,8.85
2022-11-24T17:25:49.455Z,8.83
2022-11-24T17:27:54.134Z,8.78
2022-11-24T17:29:56.957Z,8.73
2022-11-24T17:31:59.795Z,8.69
2022-11-24T17:34:04.182Z,8.69
2022-11-24T17:36:07.904Z,8.78
2022-11-24T17:38:10.734Z,8.77
2022-11-24T17:40:28.446Z,8.83
2022-11-24T17:42:32.666Z,8.72
2022-11-24T17:44:37.276Z,8.70
2022-11-24T17:46:40.174Z,8.68
2022-11-24T17:48:43.224Z,8.70
2022-11-24T17:50:46.126Z,8.67
2022-11-24T17:52:48.944Z,8.66
2022-11-24T17:54:51.876Z,8.58
2022-11-24T17:56:54.659Z,8.52
2022-11-24T17:58:59.162Z,8.47
2022-11-24T18:01:03.425Z,8.47
2022-11-24T18:03:08.225Z,8.50
2022-11-24T18:05:11.446Z,8.48
2022-11-24T18:07:14.288Z,8.49
2022-11-24T18:09:17.090Z,8.47
2022-11-24T18:11:25.916Z,8.43
2022-11-24T18:13:54.790Z,8.38
2022-11-24T18:15:54.701Z,8.34
2022-11-24T18:17:58.986Z,8.34
2022-11-24T18:20:05.684Z,8.31
2022-11-24T18:22:08.691Z,8.32
2022-11-24T18:24:13.044Z,8.31
2022-11-24T18:26:16.786Z,8.30
2022-11-24T18:28:19.688Z,8.30
2022-11-24T18:30:22.519Z,8.29
2022-11-24T18:32:25.303Z,8.26
2022-11-24T18:34:29.524Z,8.27
2022-11-24T18:36:33.045Z,8.21
2022-11-24T18:38:36.983Z,8.24
2022-11-24T18:40:41.255Z,8.18
2022-11-24T18:42:44.053Z,8.15
2022-11-24T18:44:51.057Z,8.17
2022-11-24T18:46:55.461Z,8.20
2022-11-24T18:48:58.268Z,8.16
2022-11-24T18:51:02.497Z,8.13
2022-11-24T18:53:05.538Z,8.08
2022-11-24T18:55:08.963Z,8.08
2022-11-24T18:57:11.787Z,8.07
2022-11-24T18:59:14.584Z,8.06
2022-11-24T19:01:19.712Z,8.03
2022-11-24T19:03:22.512Z,8.01
2022-11-24T19:05:25.289Z,8.07
2022-11-24T19:07:29.423Z,7.99
2022-11-24T19:09:32.292Z,7.91
2022-11-24T19:11:37.011Z,7.89
2022-11-24T19:13:39.814Z,7.86
2022-11-24T19:15:42.726Z,7.89
2022-11-24T19:17:47.446Z,7.86
2022-11-24T19:19:51.583Z,7.75
2022-11-24T19:21:54.326Z,7.71
2022-11-24T19:24:04.175Z,7.76
2022-11-24T19:26:08.704Z,7.79
2022-11-24T19:28:12.667Z,7.76
2022-11-24T19:30:17.234Z,7.75
2022-11-24T19:32:20.171Z,7.75
2022-11-24T19:34:23.064Z,7.78
2022-11-24T19:36:26.707Z,7.77
2022-11-24T19:38:30.204Z,7.73
2022-11-24T19:40:34.470Z,7.72
2022-11-24T19:42:37.325Z,7.68
2022-11-24T19:44:40.127Z,7.71
2022-11-24T19:46:42.965Z,7.67
2022-11-24T19:48:46.998Z,7.69
2022-11-24T19:50:50.054Z,7.65
2022-11-24T19:52:53.164Z,7.63
2022-11-24T19:54:56.077Z,7.63
2022-11-24T19:57:00.347Z,7.63
2022-11-24T19:59:04.126Z,7.66
2022-11-24T20:01:08.050Z,7.65
2022-11-24T20:03:10.964Z,7.69
2022-11-24T20:05:13.784Z,7.66
2022-11-24T20:07:16.768Z,7.72
2022-11-24T20:09:21.036Z,7.73
2022-11-24T20:11:24.079Z,7.70
2022-11-24T20:13:28.406Z,7.73
2022-11-24T20:15:31.233Z,7.72
2022-11-24T20:17:34.127Z,7.69
2022-11-24T20:19:37.127Z,7.72
2022-11-24T20:21:41.471Z,7.71
2022-11-24T20:23:46.080Z,7.68
2022-11-24T20:25:48.885Z,7.66
2022-11-24T20:27:51.723Z,7.65
2022-11-24T20:29:55.952Z,7.63
2022-11-24T20:31:59.240Z,7.62
2022-11-24T20:34:03.959Z,7.60
2022-11-24T20:36:09.037Z,7.56
2022-11-24T20:38:11.895Z,7.54
2022-11-24T20:40:14.859Z,7.50
2022-11-24T20:42:17.633Z,7.51
2022-11-24T20:44:22.220Z,7.51
2022-11-24T20:46:28.612Z,7.47
2022-11-24T20:48:31.778Z,7.44
2022-11-24T20:50:37.073Z,7.42
2022-11-24T20:52:39.878Z,7.41
2022-11-24T20:54:46.590Z,7.36
2022-11-24T20:56:49.558Z,7.31
2022-11-24T20:58:53.374Z,7.29
2022-11-24T21:00:56.331Z,7.28
2022-11-24T21:03:00.514Z,7.27
2022-11-24T21:05:03.324Z,7.25
2022-11-24T21:07:06.152Z,7.26
2022-11-24T21:09:09.973Z,7.21
2022-11-24T21:11:14.537Z,7.20
2022-11-24T21:13:17.365Z,7.19
2022-11-24T21:15:20.116Z,7.18
2022-11-24T21:17:22.928Z,7.11
2022-11-24T21:19:27.239Z,7.08
2022-11-24T21:21:34.056Z,7.06
2022-11-24T21:23:36.927Z,7.04
2022-11-24T21:25:39.889Z,7.06
2022-11-24T21:27:42.760Z,7.04
2022-11-24T21:29:45.555Z,7.04
2022-11-24T21:31:48.470Z,7.04
2022-11-24T21:33:53.339Z,7.05
2022-11-24T21:36:01.219Z,6.94
2022-11-24T21:38:04.703Z,6.95
2022-11-24T21:40:08.975Z,6.94
2022-11-24T21:42:11.839Z,6.92
2022-11-24T21:44:15.106Z,6.95
2022-11-24T21:46:18.505Z,6.96
2022-11-24T21:48:21.377Z,6.95
2022-11-24T21:50:24.242Z,6.95
2022-11-24T21:52:28.418Z,6.94
2022-11-24T21:54:31.216Z,6.91
2022-11-24T21:56:34.020Z,6.87
2022-11-24T21:58:37.065Z,6.84
2022-11-24T22:00:39.909Z,6.82
2022-11-24T22:02:42.948Z,6.79
2022-11-24T22:04:45.867Z,6.76
2022-11-24T22:06:48.646Z,6.76
2022-11-24T22:08:52.849Z,6.74
2022-11-24T22:11:01.433Z,6.74
2022-11-24T22:13:04.232Z,6.72
2022-11-24T22:15:07.967Z,6.72
2022-11-24T22:17:10.876Z,6.72
2022-11-24T22:19:13.898Z,6.68
2022-11-24T22:21:19.126Z,6.67
2022-11-24T22:23:21.918Z,6.62
2022-11-24T22:25:26.697Z,6.58
2022-11-24T22:27:29.531Z,6.52
2022-11-24T22:29:32.328Z,6.51
2022-11-24T22:31:35.178Z,6.52
2022-11-24T22:33:38.049Z,6.51
2022-11-24T22:35:40.807Z,6.48
2022-11-24T22:37:43.625Z,6.47
2022-11-24T22:39:46.487Z,6.45
2022-11-24T22:41:50.549Z,6.45
2022-11-24T22:43:54.417Z,6.40
2022-11-24T22:45:57.280Z,6.40
2022-11-24T22:48:00.093Z,6.40
2022-11-24T22:50:02.936Z,6.39
2022-11-24T22:52:05.734Z,6.39
2022-11-24T22:54:08.660Z,6.41
2022-11-24T22:56:12.420Z,6.39
2022-11-24T22:58:16.538Z,6.36
2022-11-24T23:00:19.893Z,6.33
2022-11-24T23:02:22.818Z,6.31
2022-11-24T23:04:25.657Z,6.30
2022-11-24T23:06:30.100Z,6.26
2022-11-24T23:08:34.730Z,6.24
2022-11-24T23:10:37.565Z,6.24
2022-11-24T23:12:40.307Z,6.24
2022-11-24T23:14:44.442Z,6.23
2022-11-24T23:16:47.563Z,6.21
2022-11-24T23:18:53.946Z,6.23
2022-11-24T23:20:57.256Z,6.25
2022-11-24T23:23:00.130Z,6.24
2022-11-24T23:25:02.975Z,6.22
2022-11-24T23:27:05.830Z,6.21
2022-11-24T23:29:09.333Z,6.25
2022-11-24T23:31:16.561Z,6.26
2022-11-24T23:33:19.399Z,6.31
2022-11-24T23:35:22.207Z,6.35
2022-11-24T23:37:39.425Z,6.36
2022-11-24T23:39:47.768Z,6.35
2022-11-24T23:41:50.656Z,6.35
2022-11-24T23:43:53.969Z,6.33
2022-11-24T23:46:02.347Z,6.31
2022-11-24T23:48:08.458Z,6.29
2022-11-24T23:50:11.572Z,6.24
2022-11-24T23:52:14.389Z,6.23
2022-11-24T23:54:17.198Z,6.18
2022-11-24T23:56:21.764Z,6.16
2022-11-24T23:58:24.581Z,6.16
